Saint Johns, Ohio
Current Conditions -  °F | °C
As of 7:53 AM on Thursday 23 Oct 2014 (Local Time) from KAOH Reporting Station
Moderate Fog Moderate Fog  
Wind Chill: 34°   Ceiling: 100
Heat Index: 34°   Visibility: 0.25mi
Dew Point: 33°   Wind: 3mph
Humidity: 96%   Direction: 260°W
Pressure: 30.24"   Gusts: NA
Location:  40.56°N, 84.08°W
Report Text: KAOH 231153Z AUTO 26003KT 1/4SM FG VV001 01/01 A3024 RMK AO2 SLP248 T00110006 10067 20011 55004
Loading
Personal Weather Stations






























Interactive Weather Map
Tropical Storm Tracking
New forecast layout! Learn more

10-Day Weather Forecast

Advertisements
Track Severe Weather on mobile